TAF and METAR

Decoding for American and Canadian METARs and TAFs is not fully implemented.
No METAR available for Palm Springs International Airport

TAF for Palm Springs International Airport

KPSP 020520Z 0206/0306 VRB04KT P6SM SKC FM022300 34011G18KT P6SM SKC AMD NOT SKED
Report created 2. jul 07:20

between 2. jul 08:00 - 3. jul 08:00

wind 4 knots from various directions